James M Cox Dayton International Airport Dayton US
ICAO: KDAY
IATA: DAY
Category: Large
Scheduled Services: Yes

Elevation: 1009 ft
TransAlt. 18000 ft.

Airport Communications:
DAYTON APP/DEP:118
ATIS:125.8
CLNC DEL:121.75
GND:121.9
DAYTON RDO:122.2
DAYTON TWR:119.9
UNICOM:122.95

KDAY Zoom In..

If you have problems with the map follow the link
https://www.worldairports.se/pages/airport.php?
ICAO=KDAY

Runways:

(A) RW 06L length 10901 ft width 150 ft
ILS 108.90 / hdg 59

(B) RW 06R length 7285 ft width 150 ft
---- / hdg 59

(C) RW 18 length 8502 ft width 150 ft
ILS 108.30 / hdg 183

(D) RW 24L length 7285 ft width 150 ft
ILS 110.30 / hdg 239

(E) RW 24R length 10901 ft width 150 ft
ILS 111.90 / hdg 239

(F) RW 36 length 8502 ft width 150 ft
---- / hdg 3

Location; KDAY
Day. 23 / Time. 17.56 Zulu
* Altimeter: 30.20
* Temperature: 14° c. 57.2°f.
* Wind from: 340° Speed 13 kn.
Dewpoint: 01° c.
Visibility: 10 Statute Miles.
Clouds: Few 4500 ft.

KDAY 231756Z 34013KT 10SM FEW045 14/01 A3020 RMK AO2 SLP227 T01390011 10144 20067 50000


Wind From 340°
Speed 13 kn.

 
 
jpsmedia.com for Web Design worldairports.se 2018   terms of use